Time;durP1;ratioP1;P1;durP2;ratioP2;P2;SDS_P1;SDS_P2;PMS_P1;PMS_P2;Temp;Humidity;BMP_temperature;BMP_pressure;BME280_temperature;BME280_humidity;BME280_pressure;Samples;Min_cycle;Max_cycle;Signal;HPM_P1;HPM_P2
2023/01/09 00:01:34;;;;;;;2.42;1.92;;;;;;;-146.19;100.00;65364.44;10611511;27;20062;-53
2023/01/09 00:06:54;;;;;;;2.63;2.22;;;;;;;-146.19;100.00;65364.44;10633298;27;20050;-52
2023/01/09 00:12:14;;;;;;;4.93;2.20;;;;;;;-146.19;100.00;65364.44;10608642;27;20082;-53
2023/01/09 00:17:33;;;;;;;2.63;2.20;;;;;;;-146.19;100.00;65364.44;10628085;27;20042;-53
2023/01/09 00:22:52;;;;;;;3.25;2.10;;;;;;;-146.19;100.00;65364.44;10627286;27;20054;-52
2023/01/09 00:28:11;;;;;;;2.80;2.00;;;;;;;-146.19;100.00;65364.44;10621644;27;20052;-52
2023/01/09 00:33:33;;;;;;;2.45;2.22;;;;;;;-146.19;100.00;65364.44;10630480;27;20137;-53
2023/01/09 00:38:53;;;;;;;2.90;2.25;;;;;;;-146.19;100.00;65364.44;10621947;27;20073;-53
2023/01/09 00:44:26;;;;;;;2.40;2.20;;;;;;;-146.19;100.00;65364.44;10632643;27;20043;-53
2023/01/09 00:49:46;;;;;;;3.03;2.15;;;;;;;-146.19;100.00;65364.44;10634150;27;20046;-53
2023/01/09 00:55:07;;;;;;;2.38;2.17;;;;;;;-146.19;100.00;65364.44;10623279;27;20055;-53
2023/01/09 01:00:26;;;;;;;4.13;2.05;;;;;;;-146.19;100.00;65364.44;10601611;27;20054;-53
2023/01/09 01:11:24;;;;;;;2.90;1.98;;;;;;;-146.19;100.00;65364.44;10625642;27;20518;-52
2023/01/09 01:16:43;;;;;;;2.67;2.28;;;;;;;-146.19;100.00;65364.44;10607613;27;20499;-53
2023/01/09 01:22:03;;;;;;;2.30;1.80;;;;;;;-146.19;100.00;65364.44;10622752;27;20392;-52
2023/01/09 01:27:23;;;;;;;2.13;1.90;;;;;;;-146.19;100.00;65364.44;10620530;27;20047;-53
2023/01/09 01:32:43;;;;;;;2.50;1.90;;;;;;;-146.19;100.00;65364.44;10624614;27;20104;-53
2023/01/09 01:38:02;;;;;;;2.13;1.60;;;;;;;-146.19;100.00;65364.44;10642165;27;20551;-54
2023/01/09 01:43:22;;;;;;;2.28;2.00;;;;;;;-146.19;100.00;65364.44;10625893;27;20056;-53
2023/01/09 01:48:41;;;;;;;2.35;1.98;;;;;;;-146.19;100.00;65364.44;10617547;27;20054;-52
2023/01/09 01:54:06;;;;;;;2.15;1.95;;;;;;;-146.19;100.00;65364.44;10626600;27;20483;-52
2023/01/09 01:59:27;;;;;;;2.25;1.73;;;;;;;-146.19;100.00;65364.44;10615700;27;20124;-53
2023/01/09 02:04:48;;;;;;;2.28;1.90;;;;;;;-146.19;100.00;65364.44;10631678;27;20032;-52
2023/01/09 02:10:07;;;;;;;1.80;1.70;;;;;;;-146.19;100.00;65364.44;10592608;27;20054;-53
2023/01/09 02:15:32;;;;;;;2.25;1.92;;;;;;;-146.19;100.00;65364.44;10598551;27;20499;-52
2023/01/09 02:20:55;;;;;;;1.85;1.63;;;;;;;19.32;53.11;95272.94;10591240;27;20043;-53
2023/01/09 02:26:46;;;;;;;2.25;1.70;;;;;;;19.30;53.09;95273.31;10628147;27;20082;-53
2023/01/09 02:32:30;;;;;;;1.88;1.70;;;;;;;19.28;53.10;95262.09;10641569;27;20092;-53
2023/01/09 02:38:17;;;;;;;2.22;1.65;;;;;;;19.27;52.92;95260.53;10627655;27;20051;-53
2023/01/09 02:43:38;;;;;;;1.90;1.60;;;;;;;19.26;52.97;95250.09;10626660;27;20101;-52
2023/01/09 02:48:57;;;;;;;1.90;1.70;;;;;;;19.25;52.97;95243.13;10626334;27;20047;-53
2023/01/09 02:54:37;;;;;;;2.17;1.52;;;;;;;19.23;53.08;95234.59;10626330;27;20556;-53
2023/01/09 03:00:07;;;;;;;2.05;1.63;;;;;;;19.22;52.99;95231.13;10624859;27;20047;-53
2023/01/09 03:05:30;;;;;;;2.00;1.80;;;;;;;19.19;52.91;95225.66;10626474;27;20055;-52
2023/01/09 03:10:55;;;;;;;1.63;1.52;;;;;;;19.19;52.89;95228.34;10610879;27;20051;-53
2023/01/09 03:16:19;;;;;;;1.65;1.55;;;;;;;19.16;52.99;95217.16;10610593;27;20055;-52
2023/01/09 03:21:39;;;;;;;1.70;1.60;;;;;;;19.14;52.89;95208.63;10609897;27;20502;-53
2023/01/09 03:26:58;;;;;;;1.60;1.50;;;;;;;-146.19;100.00;65364.44;10610129;27;20051;-53
2023/01/09 03:32:18;;;;;;;1.50;1.40;;;;;;;-146.19;100.00;65364.44;10639166;27;20463;-53
2023/01/09 03:37:37;;;;;;;2.28;1.92;;;;;;;-146.19;100.00;65364.44;10625269;27;20054;-53
2023/01/09 03:42:57;;;;;;;1.70;1.60;;;;;;;-146.19;100.00;65364.44;10624915;27;20403;-53
2023/01/09 03:48:16;;;;;;;2.22;1.67;;;;;;;-146.19;100.00;65364.44;10624907;27;20072;-52
2023/01/09 03:53:36;;;;;;;1.65;1.55;;;;;;;-146.19;100.00;65364.44;10624427;27;20062;-52
2023/01/09 03:58:55;;;;;;;1.60;1.50;;;;;;;-146.19;100.00;65364.44;10624643;27;20043;-51
2023/01/09 04:04:15;;;;;;;1.58;1.48;;;;;;;-146.19;100.00;65364.44;10623826;27;20050;-53
2023/01/09 04:09:34;;;;;;;2.58;1.70;;;;;;;-146.19;100.00;65364.44;10623618;27;20077;-53
2023/01/09 04:14:53;;;;;;;1.65;1.40;;;;;;;-146.19;100.00;65364.44;10624131;27;20051;-52
2023/01/09 04:20:13;;;;;;;1.95;1.70;;;;;;;-146.19;100.00;65364.44;10637615;27;20104;-52
2023/01/09 04:25:33;;;;;;;1.50;1.40;;;;;;;-146.19;100.00;65364.44;10623826;28;20059;-53
2023/01/09 04:30:52;;;;;;;1.50;1.40;;;;;;;-146.19;100.00;65364.44;10622458;28;20510;-52
2023/01/09 04:36:12;;;;;;;1.98;1.65;;;;;;;-146.19;100.00;65364.44;10623418;28;20047;-53
2023/01/09 04:41:50;;;;;;;1.90;1.50;;;;;;;19.14;52.89;95208.63;10623254;28;20055;-52
2023/01/09 04:47:12;;;;;;;1.50;1.38;;;;;;;18.92;52.92;95204.00;10622860;27;20062;-53
2023/01/09 04:52:31;;;;;;;1.50;1.40;;;;;;;18.91;52.91;95180.84;10623510;28;20084;-53
2023/01/09 04:57:50;;;;;;;1.40;1.30;;;;;;;18.90;52.93;95157.72;10636782;27;20043;-53
2023/01/09 05:03:10;;;;;;;1.33;1.23;;;;;;;18.88;52.99;95154.59;10622893;28;20061;-53
2023/01/09 05:08:29;;;;;;;1.77;1.33;;;;;;;18.87;53.02;95158.41;10622509;28;20076;-52
2023/01/09 05:13:49;;;;;;;2.05;1.48;;;;;;;18.86;53.13;95170.38;10627313;27;20112;-53
2023/01/09 05:19:08;;;;;;;1.50;1.40;;;;;;;18.84;52.94;95175.34;10630174;27;20047;-52
2023/01/09 05:24:28;;;;;;;1.50;1.25;;;;;;;18.83;53.05;95179.16;10629490;27;20055;-53
2023/01/09 05:29:47;;;;;;;1.50;1.40;;;;;;;18.81;53.05;95192.25;10629020;27;20510;-53
2023/01/09 05:35:07;;;;;;;1.95;1.40;;;;;;;18.81;53.36;95203.03;10630325;27;20055;-54
2023/01/09 05:40:26;;;;;;;2.63;1.42;;;;;;;18.81;53.49;95195.72;10629910;27;20051;-51
2023/01/09 05:45:45;;;;;;;1.52;1.42;;;;;;;18.81;53.49;95205.72;10629051;27;20051;-53
2023/01/09 05:51:05;;;;;;;1.63;1.48;;;;;;;18.82;53.59;95188.38;10629501;27;20055;-53
2023/01/09 05:56:24;;;;;;;1.50;1.40;;;;;;;18.81;53.50;95182.22;10629214;27;20051;-53
2023/01/09 06:01:43;;;;;;;1.67;1.35;;;;;;;18.83;53.48;95184.56;10629152;27;20414;-54
2023/01/09 06:07:03;;;;;;;2.13;1.45;;;;;;;18.83;53.54;95179.94;10627767;27;20500;-54
2023/01/09 06:12:22;;;;;;;2.00;1.20;;;;;;;18.84;53.58;95169.94;10642478;27;20039;-53
2023/01/09 06:17:42;;;;;;;2.15;1.50;;;;;;;18.85;53.52;95160.69;10627748;27;20518;-54
2023/01/09 06:23:02;;;;;;;1.23;1.13;;;;;;;18.85;53.46;95166.88;10627554;27;20411;-52
2023/01/09 06:28:21;;;;;;;2.25;1.40;;;;;;;18.86;53.50;95170.38;10641642;27;20042;-54
2023/01/09 06:33:40;;;;;;;1.50;1.40;;;;;;;18.87;53.57;95172.69;10627937;27;20054;-54
2023/01/09 06:39:00;;;;;;;1.48;1.38;;;;;;;18.89;53.49;95183.13;10627641;27;20047;-54
2023/01/09 06:44:19;;;;;;;1.50;1.40;;;;;;;18.90;53.53;95180.06;10635300;27;20047;-54
2023/01/09 06:49:39;;;;;;;1.27;1.17;;;;;;;18.92;53.53;95179.72;10640906;27;20039;-54
2023/01/09 06:54:58;;;;;;;1.48;1.38;;;;;;;18.91;53.37;95187.00;10626553;27;20058;-53
2023/01/09 07:00:18;;;;;;;1.20;1.10;;;;;;;18.93;53.33;95208.25;10626657;27;20054;-53
2023/01/09 07:05:41;;;;;;;1.38;1.20;;;;;;;18.95;53.42;95219.47;10626690;27;20092;-53
2023/01/09 07:11:00;;;;;;;1.50;1.40;;;;;;;18.97;53.45;95222.59;10640053;27;20035;-54
2023/01/09 07:16:20;;;;;;;1.17;1.10;;;;;;;18.98;53.50;95220.69;10625919;27;20058;-53
2023/01/09 07:21:39;;;;;;;1.08;1.05;;;;;;;19.01;53.47;95228.81;10639712;27;20039;-53
2023/01/09 07:26:58;;;;;;;1.45;1.35;;;;;;;19.01;53.52;95234.22;10639215;27;20046;-54
2023/01/09 07:32:18;;;;;;;1.33;1.23;;;;;;;19.03;53.41;95258.94;10625657;27;20434;-54
2023/01/09 07:37:38;;;;;;;1.38;1.27;;;;;;;19.06;53.44;95257.47;10625093;27;20108;-54
2023/01/09 07:42:57;;;;;;;1.88;1.40;;;;;;;19.07;53.23;95270.59;10624949;27;20047;-53
2023/01/09 07:48:17;;;;;;;1.95;1.40;;;;;;;19.09;53.12;95279.13;10624730;27;20050;-53
2023/01/09 07:53:36;;;;;;;2.20;1.42;;;;;;;19.12;53.08;95272.22;10624553;27;20055;-54
2023/01/09 07:58:55;;;;;;;2.53;1.38;;;;;;;19.13;53.30;95269.16;10624079;27;20620;-54
2023/01/09 08:04:15;;;;;;;3.45;1.45;;;;;;;19.15;53.59;95261.50;10623850;27;20043;-54
2023/01/09 08:09:34;;;;;;;2.17;1.40;;;;;;;19.20;53.67;95267.72;10623572;27;20043;-54
2023/01/09 08:14:53;;;;;;;3.72;1.35;;;;;;;19.21;53.35;95267.38;10623909;27;20062;-55
2023/01/09 08:20:14;;;;;;;3.33;1.50;;;;;;;19.24;53.48;95268.56;10637303;27;20129;-55
2023/01/09 08:25:34;;;;;;;3.47;1.50;;;;;;;19.26;53.49;95264.38;10623240;28;20104;-55
2023/01/09 08:30:54;;;;;;;3.80;1.23;;;;;;;19.28;53.45;95280.97;10623134;28;20047;-54
2023/01/09 08:36:13;;;;;;;2.50;1.48;;;;;;;19.30;53.53;95289.50;10622495;28;20514;-54
2023/01/09 08:47:14;;;;;;;2.08;1.20;;;;;;;19.34;53.32;95279.53;10624568;27;20460;-55
2023/01/09 08:52:34;;;;;;;4.53;1.40;;;;;;;19.36;53.49;95306.97;10631881;27;20129;-54
2023/01/09 08:57:54;;;;;;;2.15;1.40;;;;;;;19.40;53.37;95319.75;10645474;27;20100;-54
2023/01/09 09:03:14;;;;;;;1.85;1.67;;;;;;;19.41;53.53;95316.72;10631521;27;20410;-54
2023/01/09 09:08:33;;;;;;;3.03;1.40;;;;;;;19.45;53.37;95331.06;10630311;27;20051;-53
2023/01/09 09:13:53;;;;;;;3.10;1.75;;;;;;;19.46;53.64;95356.91;10644543;27;20047;-54
2023/01/09 09:19:12;;;;;;;4.07;1.50;;;;;;;19.47;53.52;95358.47;10629913;27;20518;-54
2023/01/09 09:24:32;;;;;;;5.72;1.38;;;;;;;19.50;53.43;95363.19;10630428;27;20062;-55
2023/01/09 09:29:51;;;;;;;3.67;1.42;;;;;;;19.53;53.44;95367.84;10630321;27;20050;-54
2023/01/09 09:35:10;;;;;;;3.78;1.38;;;;;;;19.54;53.67;95374.03;10629505;27;20502;-54
2023/01/09 09:40:49;;;;;;;4.07;1.35;;;;;;;19.56;53.21;95380.66;10629383;27;20051;-54
2023/01/09 09:46:31;;;;;;;6.55;1.20;;;;;;;19.59;53.32;95383.78;10628926;27;20518;-55
2023/01/09 09:52:18;;;;;;;7.43;1.30;;;;;;;19.62;53.40;95391.16;10613352;27;20401;-52
2023/01/09 09:57:38;;;;;;;5.13;1.35;;;;;;;19.63;53.28;95376.50;10612894;27;20051;-54
2023/01/09 10:03:03;;;;;;;4.53;1.50;;;;;;;19.64;53.19;95384.25;10642807;27;20042;-58
2023/01/09 10:08:51;;;;;;;8.05;1.30;;;;;;;19.66;53.43;95381.19;10642493;27;20039;-53
2023/01/09 10:14:11;;;;;;;3.28;1.30;;;;;;;19.68;53.13;95389.72;10642273;27;20035;-53
2023/01/09 10:20:01;;;;;;;5.68;1.50;;;;;;;19.70;53.29;95387.47;10628229;27;20047;-53
2023/01/09 10:25:43;;;;;;;3.72;1.35;;;;;;;19.71;53.21;95383.59;10641445;27;20047;-54
2023/01/09 10:31:11;;;;;;;5.20;1.50;;;;;;;19.72;53.15;95380.56;10627108;27;20491;-53
2023/01/09 10:37:05;;;;;;;3.63;1.60;;;;;;;19.74;53.21;95372.91;10612389;27;20059;-54
2023/01/09 10:42:32;;;;;;;3.47;1.35;;;;;;;19.75;53.39;95362.84;10627513;27;20046;-54
2023/01/09 10:48:03;;;;;;;5.78;1.60;;;;;;;19.78;53.53;95362.16;10627200;27;20047;-59
2023/01/09 10:53:29;;;;;;;3.72;2.00;;;;;;;19.81;53.71;95374.94;10627060;27;20055;-53
2023/01/09 10:58:50;;;;;;;6.25;2.25;;;;;;;19.82;54.19;95373.78;10610830;27;20047;-54
2023/01/09 11:04:25;;;;;;;2.58;1.70;;;;;;;19.85;54.83;95377.69;10610692;27;20047;-54
2023/01/09 11:09:59;;;;;;;2.78;1.88;;;;;;;19.85;55.12;95386.56;10626007;27;20105;-53
2023/01/09 11:15:27;;;;;;;3.17;1.98;;;;;;;19.88;55.14;95396.69;10639458;27;20043;-53
2023/01/09 11:20:47;;;;;;;4.22;1.73;;;;;;;19.90;55.22;95397.09;10625060;27;20495;-57
2023/01/09 11:26:21;;;;;;;4.75;1.70;;;;;;;19.90;54.78;95399.78;10625624;27;20047;-54
2023/01/09 11:31:41;;;;;;;3.40;1.98;;;;;;;19.91;54.52;95409.44;10625615;27;20402;-61
2023/01/09 11:37:03;;;;;;;3.38;1.80;;;;;;;19.92;54.84;95412.97;10609948;27;20047;-53
2023/01/09 11:48:16;;;;;;;3.47;1.65;;;;;;;19.95;54.38;95414.94;10624814;27;20051;-52
2023/01/09 11:53:47;;;;;;;4.93;2.00;;;;;;;19.94;54.25;95419.56;10624754;27;20051;-57
2023/01/09 11:59:19;;;;;;;6.75;1.55;;;;;;;-146.19;100.00;65364.44;10623859;27;20566;-53
2023/01/09 12:05:17;;;;;;;5.97;1.80;;;;;;;-146.19;100.00;65364.44;10624208;27;20134;-54
2023/01/09 12:10:58;;;;;;;3.88;1.75;;;;;;;-146.19;100.00;65364.44;10624188;27;20043;-53
2023/01/09 12:16:43;;;;;;;4.53;1.60;;;;;;;-146.19;100.00;65364.44;10638058;27;20035;-52
2023/01/09 12:22:30;;;;;;;4.38;1.60;;;;;;;-146.19;100.00;65364.44;10622510;27;20491;-52
2023/01/09 12:28:23;;;;;;;4.55;1.50;;;;;;;-146.19;100.00;65364.44;10623963;28;20093;-53
2023/01/09 12:34:07;;;;;;;1.85;1.45;;;;;;;-146.19;100.00;65364.44;10607646;28;20051;-54
2023/01/09 12:40:00;;;;;;;1.70;1.30;;;;;;;-146.19;100.00;65364.44;10594576;28;20051;-54
2023/01/09 12:45:49;;;;;;;2.17;1.35;;;;;;;-146.19;100.00;65364.44;10628250;27;20051;-54
2023/01/09 12:51:08;;;;;;;;;;;;;;;-146.19;100.00;65364.44;10580954;28;20506;-53
2023/01/09 12:56:39;;;;;;;3.17;1.35;;;;;;;-146.19;100.00;65364.44;10623381;28;19923;-53
2023/01/09 13:02:21;;;;;;;1.88;1.77;;;;;;;-146.19;100.00;65364.44;10623228;28;20055;-54
2023/01/09 13:07:45;;;;;;;4.35;1.40;;;;;;;-146.19;100.00;65364.44;10622497;28;20051;-53
2023/01/09 13:13:12;;;;;;;2.35;1.70;;;;;;;-146.19;100.00;65364.44;10622040;28;20054;-53
2023/01/09 13:18:39;;;;;;;2.20;1.33;;;;;;;-146.19;100.00;65364.44;10607238;28;20051;-54
2023/01/09 13:24:18;;;;;;;1.58;1.45;;;;;;;-146.19;100.00;65364.44;10622747;28;20054;-53
2023/01/09 13:29:43;;;;;;;2.58;1.38;;;;;;;-146.19;100.00;65364.44;10607177;28;20117;-54
2023/01/09 13:35:03;;;;;;;1.65;1.38;;;;;;;-146.19;100.00;65364.44;10627204;27;20059;-53
2023/01/09 13:40:22;;;;;;;1.77;1.35;;;;;;;-146.19;100.00;65364.44;10629892;27;20388;-53
2023/01/09 13:45:41;;;;;;;1.33;1.17;;;;;;;-146.19;100.00;65364.44;10629205;27;20082;-52
2023/01/09 13:51:55;;;;;;;1.67;1.30;;;;;;;-146.19;100.00;65364.44;10628897;27;20503;-51
2023/01/09 13:57:25;;;;;;;3.95;1.17;;;;;;;-146.19;100.00;65364.44;10629324;27;20047;-52
2023/01/09 14:02:45;;;;;;;2.63;1.33;;;;;;;-146.19;100.00;65364.44;10642966;27;20043;-52
2023/01/09 14:08:28;;;;;;;2.47;1.35;;;;;;;-146.19;100.00;65364.44;10628888;27;20047;-54
2023/01/09 14:13:54;;;;;;;2.38;1.30;;;;;;;-146.19;100.00;65364.44;10612828;27;20055;-53
2023/01/09 14:19:14;;;;;;;2.17;1.13;;;;;;;-146.19;100.00;65364.44;10613041;27;20047;-52
2023/01/09 14:24:42;;;;;;;1.75;1.33;;;;;;;-146.19;100.00;65364.44;10628413;27;20059;-52
2023/01/09 14:30:26;;;;;;;2.30;1.40;;;;;;;-146.19;100.00;65364.44;10627012;27;20047;-52
2023/01/09 14:35:57;;;;;;;1.70;1.08;;;;;;;-146.19;100.00;65364.44;10627936;27;20055;-53
2023/01/09 14:41:56;;;;;;;2.17;1.00;;;;;;;-146.19;100.00;65364.44;10641309;27;20414;-53
2023/01/09 14:47:13;;;;;;;1.55;1.20;;;;;;;-146.19;100.00;65364.44;10626834;27;20043;-53
2023/01/09 14:53:02;;;;;;;1.15;1.02;;;;;;;-146.19;100.00;65364.44;10611955;27;20074;-54
2023/01/09 14:58:33;;;;;;;1.52;1.13;;;;;;;-146.19;100.00;65364.44;10586050;27;20047;-54
2023/01/09 15:03:57;;;;;;;2.75;1.10;;;;;;;-146.19;100.00;65364.44;10626395;27;20096;-54
2023/01/09 15:09:23;;;;;;;2.45;0.98;;;;;;;-146.19;100.00;65364.44;10611283;27;20051;-53
2023/01/09 15:14:44;;;;;;;1.75;1.20;;;;;;;-146.19;100.00;65364.44;10626367;27;20058;-52
2023/01/09 15:20:05;;;;;;;3.90;1.13;;;;;;;-146.19;100.00;65364.44;10625507;27;20055;-53
2023/01/09 15:25:30;;;;;;;1.10;1.00;;;;;;;-146.19;100.00;65364.44;10609621;27;20375;-53
2023/01/09 15:30:57;;;;;;;1.20;1.10;;;;;;;-146.19;100.00;65364.44;10625090;27;20043;-53
2023/01/09 15:36:19;;;;;;;1.20;1.02;;;;;;;-146.19;100.00;65364.44;10623714;27;20377;-54
2023/01/09 15:47:26;;;;;;;1.67;0.95;;;;;;;-146.19;100.00;65364.44;10611059;27;20063;-53
2023/01/09 15:52:46;;;;;;;1.05;0.90;;;;;;;-146.19;100.00;65364.44;10624912;27;20051;-52
2023/01/09 15:58:27;;;;;;;2.15;0.93;;;;;;;-146.19;100.00;65364.44;10638206;27;20043;-53
2023/01/09 16:03:47;;;;;;;1.58;0.95;;;;;;;-146.19;100.00;65364.44;10605568;27;20051;-55
2023/01/09 16:09:25;;;;;;;1.08;0.98;;;;;;;-146.19;100.00;65364.44;10623777;27;20043;-52
2023/01/09 16:14:58;;;;;;;;;;;;;;;-146.19;100.00;65364.44;10609496;27;20047;-52
2023/01/09 16:20:24;;;;;;;1.00;0.90;;;;;;;-146.19;100.00;65364.44;10608816;27;19919;-51
2023/01/09 16:25:44;;;;;;;1.42;0.90;;;;;;;-146.19;100.00;65364.44;10607269;27;20459;-51
2023/01/09 16:31:07;;;;;;;2.72;0.95;;;;;;;-146.19;100.00;65364.44;10607919;28;20406;-51
2023/01/09 16:36:27;;;;;;;0.77;0.70;;;;;;;-146.19;100.00;65364.44;10623815;28;20055;-59
2023/01/09 16:47:24;;;;;;;1.43;1.00;;;;;;;-146.19;100.00;65364.44;10637214;27;20046;-60
2023/01/09 16:52:44;;;;;;;3.53;0.95;;;;;;;-146.19;100.00;65364.44;10623445;28;20148;-62
2023/01/09 16:58:03;;;;;;;2.10;0.77;;;;;;;-146.19;100.00;65364.44;10623362;28;20051;-65
2023/01/09 17:03:23;;;;;;;1.45;0.90;;;;;;;-146.19;100.00;65364.44;10636927;27;20475;-61
2023/01/09 17:08:45;;;;;;;1.83;0.80;;;;;;;-146.19;100.00;65364.44;10626205;27;20433;-59
2023/01/09 17:14:06;;;;;;;0.90;0.85;;;;;;;-146.19;100.00;65364.44;10630528;27;20494;-51
2023/01/09 17:19:25;;;;;;;0.80;0.80;;;;;;;-146.19;100.00;65364.44;10644728;27;20433;-53
2023/01/09 17:30:23;;;;;;;0.93;0.90;;;;;;;-146.19;100.00;65364.44;10629625;27;20058;-51
2023/01/09 17:35:42;;;;;;;1.48;0.70;;;;;;;-146.19;100.00;65364.44;10628506;27;20499;-61
2023/01/09 17:41:02;;;;;;;1.08;0.80;;;;;;;-146.19;100.00;65364.44;10628205;27;20494;-60
2023/01/09 17:46:35;;;;;;;2.17;0.70;;;;;;;-146.19;100.00;65364.44;10628081;27;20063;-59
2023/01/09 17:51:54;;;;;;;1.85;0.70;;;;;;;-146.19;100.00;65364.44;10628502;27;20055;-57
2023/01/09 17:57:17;;;;;;;0.80;0.70;;;;;;;-146.19;100.00;65364.44;10628379;27;20051;-59
2023/01/09 18:02:37;;;;;;;2.55;0.80;;;;;;;-146.19;100.00;65364.44;10628092;27;20140;-57
2023/01/09 18:07:56;;;;;;;1.25;0.68;;;;;;;-146.19;100.00;65364.44;10626790;27;20509;-58
2023/01/09 18:13:16;;;;;;;3.72;0.90;;;;;;;-146.19;100.00;65364.44;10628798;27;20051;-52
2023/01/09 18:18:37;;;;;;;1.75;0.85;;;;;;;-146.19;100.00;65364.44;10641264;27;20540;-54
2023/01/09 18:23:57;;;;;;;1.25;0.80;;;;;;;-146.19;100.00;65364.44;10628515;27;20055;-53
2023/01/09 18:29:17;;;;;;;1.15;0.90;;;;;;;-146.19;100.00;65364.44;10641861;27;20043;-50
2023/01/09 18:34:37;;;;;;;1.35;1.00;;;;;;;-146.19;100.00;65364.44;10627879;27;20047;-52
2023/01/09 18:39:57;;;;;;;3.75;1.10;;;;;;;-146.19;100.00;65364.44;10626677;27;20128;-57
2023/01/09 18:45:17;;;;;;;3.80;1.10;;;;;;;-146.19;100.00;65364.44;10631618;27;20043;-57
2023/01/09 18:50:36;;;;;;;2.00;0.85;;;;;;;-146.19;100.00;65364.44;10626842;27;20074;-56
2023/01/09 18:55:56;;;;;;;1.73;0.88;;;;;;;-146.19;100.00;65364.44;10626639;27;20112;-57
2023/01/09 19:01:15;;;;;;;1.50;1.00;;;;;;;-146.19;100.00;65364.44;10625243;27;20062;-60
2023/01/09 19:06:36;;;;;;;1.73;1.10;;;;;;;-146.19;100.00;65364.44;10625539;27;20055;-57
2023/01/09 19:11:56;;;;;;;2.53;1.23;;;;;;;-146.19;100.00;65364.44;10626146;27;20047;-56
2023/01/09 19:17:15;;;;;;;2.45;1.40;;;;;;;-146.19;100.00;65364.44;10625697;27;20047;-57
2023/01/09 19:22:35;;;;;;;2.15;0.90;;;;;;;-146.19;100.00;65364.44;10624972;27;20414;-57
2023/01/09 19:27:54;;;;;;;4.28;1.23;;;;;;;-146.19;100.00;65364.44;10639097;27;20047;-58
2023/01/09 19:33:14;;;;;;;3.25;1.00;;;;;;;-146.19;100.00;65364.44;10624467;27;20118;-51
2023/01/09 19:38:34;;;;;;;1.30;0.70;;;;;;;-146.19;100.00;65364.44;10625434;27;20043;-55
2023/01/09 19:43:53;;;;;;;1.67;0.90;;;;;;;-146.19;100.00;65364.44;10624912;27;20065;-53
2023/01/09 19:49:13;;;;;;;1.88;0.90;;;;;;;-146.19;100.00;65364.44;10624984;27;20066;-53
2023/01/09 19:54:33;;;;;;;0.80;0.70;;;;;;;-146.19;100.00;65364.44;10624243;27;20502;-52
2023/01/09 19:59:52;;;;;;;0.85;0.85;;;;;;;-146.19;100.00;65364.44;10624725;27;20392;-51
2023/01/09 20:05:11;;;;;;;2.60;0.95;;;;;;;-146.19;100.00;65364.44;10623914;27;20058;-50
2023/01/09 20:10:32;;;;;;;1.20;0.98;;;;;;;-146.19;100.00;65364.44;10624329;27;20047;-51
2023/01/09 20:15:52;;;;;;;2.35;1.20;;;;;;;-146.19;100.00;65364.44;10624294;27;20055;-52
2023/01/09 20:21:21;;;;;;;2.05;1.00;;;;;;;-146.19;100.00;65364.44;10623513;27;20562;-52
2023/01/09 20:26:41;;;;;;;2.63;1.10;;;;;;;-146.19;100.00;65364.44;10623333;27;20055;-49
2023/01/09 20:32:06;;;;;;;2.45;1.05;;;;;;;-146.19;100.00;65364.44;10622669;28;20570;-49
2023/01/09 20:37:26;;;;;;;1.83;1.10;;;;;;;-146.19;100.00;65364.44;10621795;28;20058;-50
2023/01/09 20:42:45;;;;;;;2.90;1.02;;;;;;;-146.19;100.00;65364.44;10637131;27;20104;-52
2023/01/09 20:48:05;;;;;;;4.03;1.55;;;;;;;-146.19;100.00;65364.44;10632276;27;20448;-53
2023/01/09 20:53:25;;;;;;;4.03;1.50;;;;;;;-146.19;100.00;65364.44;10632165;27;20497;-53
2023/01/09 20:58:44;;;;;;;3.88;1.65;;;;;;;-146.19;100.00;65364.44;10645567;27;20054;-52
2023/01/09 21:04:03;;;;;;;6.70;2.00;;;;;;;-146.19;100.00;65364.44;10631679;27;20062;-53
2023/01/09 21:09:24;;;;;;;6.88;2.40;;;;;;;-146.19;100.00;65364.44;10630884;27;20100;-54
2023/01/09 21:14:43;;;;;;;5.38;2.10;;;;;;;-146.19;100.00;65364.44;10630680;27;20115;-53
2023/01/09 21:20:06;;;;;;;10.13;2.13;;;;;;;-146.19;100.00;65364.44;10630382;27;20058;-53
2023/01/09 21:25:25;;;;;;;8.63;2.67;;;;;;;-146.19;100.00;65364.44;10630676;27;20058;-53
2023/01/09 21:30:48;;;;;;;8.05;2.33;;;;;;;-146.19;100.00;65364.44;10630586;27;20452;-53
2023/01/09 21:36:08;;;;;;;5.88;2.10;;;;;;;-146.19;100.00;65364.44;10644174;27;20505;-54
2023/01/09 21:47:06;;;;;;;8.93;2.22;;;;;;;-146.19;100.00;65364.44;10629469;27;20417;-52
2023/01/09 21:52:26;;;;;;;7.53;2.92;;;;;;;-146.19;100.00;65364.44;10629929;27;20076;-54
2023/01/09 21:57:45;;;;;;;5.97;2.53;;;;;;;-146.19;100.00;65364.44;10628408;27;20043;-53
2023/01/09 22:03:06;;;;;;;6.82;2.03;;;;;;;-146.19;100.00;65364.44;10628647;27;20547;-53
2023/01/09 22:08:26;;;;;;;5.45;2.20;;;;;;;-146.19;100.00;65364.44;10629278;27;20047;-54
2023/01/09 22:13:49;;;;;;;6.95;2.15;;;;;;;-146.19;100.00;65364.44;10628565;27;20051;-54
2023/01/09 22:19:09;;;;;;;7.78;2.13;;;;;;;-146.19;100.00;65364.44;10628963;27;20440;-54
2023/01/09 22:24:29;;;;;;;4.97;2.10;;;;;;;-146.19;100.00;65364.44;10628762;27;20051;-54
2023/01/09 22:29:48;;;;;;;4.43;1.83;;;;;;;-146.19;100.00;65364.44;10628411;27;20043;-53
2023/01/09 22:35:08;;;;;;;5.32;2.00;;;;;;;-146.19;100.00;65364.44;10628297;27;20051;-54
2023/01/09 22:40:28;;;;;;;5.18;2.15;;;;;;;-146.19;100.00;65364.44;10626877;27;20469;-52
2023/01/09 22:45:47;;;;;;;4.63;1.65;;;;;;;-146.19;100.00;65364.44;10627417;27;20047;-53
2023/01/09 22:51:13;;;;;;;4.43;1.67;;;;;;;-146.19;100.00;65364.44;10623488;27;20043;-54
2023/01/09 22:56:32;;;;;;;4.15;1.85;;;;;;;-146.19;100.00;65364.44;10623343;27;20055;-55
2023/01/09 23:01:53;;;;;;;4.20;1.77;;;;;;;-146.19;100.00;65364.44;10623116;27;20055;-53
2023/01/09 23:07:13;;;;;;;3.78;1.67;;;;;;;-146.19;100.00;65364.44;10622247;27;20051;-53
2023/01/09 23:12:33;;;;;;;4.53;1.42;;;;;;;-146.19;100.00;65364.44;10622695;27;20058;-53
2023/01/09 23:17:52;;;;;;;3.67;1.90;;;;;;;-146.19;100.00;65364.44;10622463;27;20047;-54
2023/01/09 23:23:12;;;;;;;3.38;1.58;;;;;;;-146.19;100.00;65364.44;10635958;27;20458;-53
2023/01/09 23:28:32;;;;;;;3.35;1.67;;;;;;;-146.19;100.00;65364.44;10621232;27;20047;-53
2023/01/09 23:33:51;;;;;;;4.57;1.65;;;;;;;-146.19;100.00;65364.44;10625861;27;20108;-53
2023/01/09 23:39:10;;;;;;;3.35;1.63;;;;;;;-146.19;100.00;65364.44;10624861;27;20058;-52
2023/01/09 23:44:30;;;;;;;3.42;1.67;;;;;;;-146.19;100.00;65364.44;10631357;27;20055;-53
2023/01/09 23:49:50;;;;;;;4.30;1.55;;;;;;;-146.19;100.00;65364.44;10625020;27;20070;-53
2023/01/09 23:55:10;;;;;;;3.85;1.48;;;;;;;-146.19;100.00;65364.44;10625026;27;20055;-52
